Time,TemperatureF,DewpointF,PressureIn,WindDirection,WindDirectionDegrees,WindSpeedMPH,WindSpeedGustMPH,Humidity,HourlyPrecipIn,Conditions,Clouds,dailyrainin,SoftwareType,DateUTC
2013-02-21 00:14:00,37.2,36.7,29.89,North,0,0.0,-999.0,98,-99.99,,,0.00,Acu-Link.com,2013-02-21 06:14:00,
2013-02-21 00:29:00,36.9,36.4,29.88,North,0,0.0,-999.0,98,-99.99,,,0.00,Acu-Link.com,2013-02-21 06:29:00,
2013-02-21 00:44:00,36.9,36.4,29.88,North,0,0.0,-999.0,98,-99.99,,,0.00,Acu-Link.com,2013-02-21 06:44:00,
2013-02-21 01:00:00,37.0,36.5,29.87,North,0,0.0,-999.0,98,-99.99,,,0.00,Acu-Link.com,2013-02-21 07:00:00,
2013-02-21 01:15:00,36.7,36.2,29.87,North,0,0.0,-999.0,98,-99.99,,,0.00,Acu-Link.com,2013-02-21 07:15:00,
2013-02-21 01:30:00,36.5,36.0,29.89,North,0,0.0,-999.0,98,-99.99,,,0.00,Acu-Link.com,2013-02-21 07:30:00,
2013-02-21 01:45:00,35.6,35.1,29.89,North,0,0.0,-999.0,98,-99.99,,,0.00,Acu-Link.com,2013-02-21 07:45:00,
2013-02-21 02:00:00,35.2,34.7,29.87,North,0,0.0,-999.0,98,-99.99,,,0.00,Acu-Link.com,2013-02-21 08:00:00,
2013-02-21 02:15:00,34.7,34.2,29.87,North,0,1.7,-999.0,98,-99.99,,,0.00,Acu-Link.com,2013-02-21 08:15:00,
2013-02-21 02:30:00,33.6,33.1,29.88,North,0,0.0,-999.0,98,-99.99,,,0.00,Acu-Link.com,2013-02-21 08:30:00,
2013-02-21 02:45:00,32.5,32.0,29.88,North,0,0.0,-999.0,98,-99.99,,,0.00,Acu-Link.com,2013-02-21 08:45:00,
2013-02-21 03:00:00,32.0,31.5,29.87,North,0,0.0,-999.0,98,-99.99,,,0.00,Acu-Link.com,2013-02-21 09:00:00,
2013-02-21 03:21:00,32.0,31.5,29.87,North,0,0.0,-999.0,98,-99.99,,,0.00,Acu-Link.com,2013-02-21 09:21:00,
2013-02-21 03:36:00,30.4,29.9,29.86,North,0,1.7,-999.0,98,-99.99,,,0.00,Acu-Link.com,2013-02-21 09:36:00,
2013-02-21 03:51:00,29.8,29.3,29.86,North,0,0.0,-999.0,98,-99.99,,,0.00,Acu-Link.com,2013-02-21 09:51:00,
2013-02-21 04:06:00,29.7,29.2,29.86,North,0,0.0,-999.0,98,-99.99,,,0.00,Acu-Link.com,2013-02-21 10:06:00,
2013-02-21 04:21:00,30.4,29.9,29.87,North,0,0.0,-999.0,98,-99.99,,,0.00,Acu-Link.com,2013-02-21 10:21:00,
2013-02-21 04:37:00,31.8,31.3,29.88,North,0,1.7,-999.0,98,-99.99,,,0.00,Acu-Link.com,2013-02-21 10:37:00,
2013-02-21 04:52:00,32.2,31.7,29.88,North,0,3.2,-999.0,98,-99.99,,,0.00,Acu-Link.com,2013-02-21 10:52:00,
2013-02-21 05:07:00,32.4,31.1,29.88,North,0,4.2,-999.0,95,-99.99,,,0.00,Acu-Link.com,2013-02-21 11:07:00,
2013-02-21 05:22:00,32.2,30.9,29.88,North,0,2.2,-999.0,95,-99.99,,,0.00,Acu-Link.com,2013-02-21 11:22:00,
2013-02-21 05:37:00,31.5,31.0,29.88,North,0,1.7,-999.0,98,-99.99,,,0.00,Acu-Link.com,2013-02-21 11:37:00,
2013-02-21 05:52:00,30.7,30.2,29.89,North,0,0.0,-999.0,98,-99.99,,,0.00,Acu-Link.com,2013-02-21 11:52:00,
2013-02-21 06:07:00,30.0,29.5,29.89,North,0,0.0,-999.0,98,-99.99,,,0.00,Acu-Link.com,2013-02-21 12:07:00,
2013-02-21 06:22:00,29.7,29.2,29.89,North,0,0.0,-999.0,98,-99.99,,,0.00,Acu-Link.com,2013-02-21 12:22:00,
2013-02-21 06:37:00,29.7,29.2,29.89,North,0,0.0,-999.0,98,-99.99,,,0.00,Acu-Link.com,2013-02-21 12:37:00,
2013-02-21 06:53:00,30.7,30.2,29.88,North,0,3.7,-999.0,98,-99.99,,,0.00,Acu-Link.com,2013-02-21 12:53:00,
2013-02-21 07:08:00,32.4,31.9,29.89,North,0,2.7,-999.0,98,-99.99,,,0.00,Acu-Link.com,2013-02-21 13:08:00,
2013-02-21 07:23:00,35.1,32.2,29.91,North,0,4.7,-999.0,89,-99.99,,,0.00,Acu-Link.com,2013-02-21 13:23:00,
2013-02-21 07:38:00,37.0,32.3,29.92,North,0,4.2,-999.0,83,-99.99,,,0.00,Acu-Link.com,2013-02-21 13:38:00,
2013-02-21 07:53:00,38.1,32.5,29.91,NNW,337,3.7,-999.0,80,-99.99,,,0.00,Acu-Link.com,2013-02-21 13:53:00,
2013-02-21 08:08:00,38.8,31.9,29.91,NNE,22,7.8,-999.0,76,-99.99,,,0.00,Acu-Link.com,2013-02-21 14:08:00,
2013-02-21 08:24:00,40.8,33.2,29.91,ESE,112,3.2,-999.0,74,-99.99,,,0.00,Acu-Link.com,2013-02-21 14:24:00,
2013-02-21 08:39:00,40.8,32.5,29.91,North,0,3.7,-999.0,72,-99.99,,,0.00,Acu-Link.com,2013-02-21 14:39:00,
2013-02-21 08:55:00,42.6,33.2,29.91,East,90,6.3,-999.0,69,-99.99,,,0.00,Acu-Link.com,2013-02-21 14:55:00,
2013-02-21 09:20:00,44.6,33.2,29.89,NE,45,5.3,-999.0,64,-99.99,,,0.00,Acu-Link.com,2013-02-21 15:20:00,
2013-02-21 09:38:00,45.7,34.2,29.89,ENE,67,3.7,-999.0,64,-99.99,,,0.00,Acu-Link.com,2013-02-21 15:38:00,
2013-02-21 11:07:00,53.6,36.9,29.85,ESE,112,3.2,-999.0,53,-99.99,,,0.00,Acu-Link.com,2013-02-21 17:07:00,
2013-02-21 11:23:00,54.9,38.1,29.83,ESE,112,3.7,-999.0,53,-99.99,,,0.00,Acu-Link.com,2013-02-21 17:23:00,
2013-02-21 11:52:00,54.9,38.1,29.83,ENE,67,4.2,-999.0,53,-99.99,,,0.00,Acu-Link.com,2013-02-21 17:52:00,
2013-02-21 12:07:00,54.9,38.1,29.79,ESE,112,3.7,-999.0,53,-99.99,,,0.00,Acu-Link.com,2013-02-21 18:07:00,
2013-02-21 12:24:00,61.5,41.1,29.79,NNE,22,5.8,-999.0,47,-99.99,,,0.00,Acu-Link.com,2013-02-21 18:24:00,
2013-02-21 12:39:00,63.7,41.4,29.78,ESE,112,1.7,-999.0,44,-99.99,,,0.00,Acu-Link.com,2013-02-21 18:39:00,
2013-02-21 12:55:00,65.1,42.6,29.77,NNE,22,4.7,-999.0,44,-99.99,,,0.00,Acu-Link.com,2013-02-21 18:55:00,
2013-02-21 13:11:00,65.5,42.4,29.75,East,90,6.8,-999.0,43,-99.99,,,0.00,Acu-Link.com,2013-02-21 19:11:00,
2013-02-21 13:26:00,66.0,43.5,29.72,ESE,112,6.3,-999.0,44,-99.99,,,0.00,Acu-Link.com,2013-02-21 19:26:00,
2013-02-21 13:41:00,65.7,44.9,29.70,ENE,67,8.9,-999.0,47,-99.99,,,0.00,Acu-Link.com,2013-02-21 19:41:00,
2013-02-21 13:57:00,67.1,46.2,29.70,NNE,22,1.7,-999.0,47,-99.99,,,0.00,Acu-Link.com,2013-02-21 19:57:00,
2013-02-21 14:12:00,64.2,45.2,29.68,NNE,22,2.7,-999.0,50,-99.99,,,0.00,Acu-Link.com,2013-02-21 20:12:00,
2013-02-21 14:27:00,65.1,45.5,29.69,NNE,22,1.7,-999.0,49,-99.99,,,0.00,Acu-Link.com,2013-02-21 20:27:00,
2013-02-21 14:43:00,64.2,44.6,29.67,NNW,337,1.1,-999.0,49,-99.99,,,0.00,Acu-Link.com,2013-02-21 20:43:00,
2013-02-21 14:59:00,62.8,44.9,29.67,ESE,112,1.1,-999.0,52,-99.99,,,0.00,Acu-Link.com,2013-02-21 20:59:00,
2013-02-21 15:14:00,62.2,44.4,29.65,ESE,112,1.1,-999.0,52,-99.99,,,0.00,Acu-Link.com,2013-02-21 21:14:00,
2013-02-21 15:29:00,62.6,43.7,29.64,ESE,112,0.0,-999.0,50,-99.99,,,0.00,Acu-Link.com,2013-02-21 21:29:00,
2013-02-21 15:46:00,62.6,43.7,29.64,South,180,4.7,-999.0,50,-99.99,,,0.00,Acu-Link.com,2013-02-21 21:46:00,
2013-02-21 16:02:00,63.0,43.5,29.64,SSE,157,5.8,-999.0,49,-99.99,,,0.00,Acu-Link.com,2013-02-21 22:02:00,
2013-02-21 16:17:00,63.0,44.1,29.62,ESE,112,5.3,-999.0,50,-99.99,,,0.00,Acu-Link.com,2013-02-21 22:17:00,
2013-02-21 16:33:00,62.6,44.2,29.62,SE,135,2.2,-999.0,51,-99.99,,,0.00,Acu-Link.com,2013-02-21 22:33:00,
2013-02-21 16:48:00,62.4,44.0,29.61,South,180,6.8,-999.0,51,-99.99,,,0.00,Acu-Link.com,2013-02-21 22:48:00,
2013-02-21 17:03:00,62.6,44.7,29.62,South,180,4.2,-999.0,52,-99.99,,,0.00,Acu-Link.com,2013-02-21 23:03:00,
2013-02-21 17:18:00,60.8,48.1,29.63,West,270,2.2,-999.0,63,-99.99,,,0.00,Acu-Link.com,2013-02-21 23:18:00,
2013-02-21 17:33:00,56.5,55.4,29.66,NNE,22,2.7,-999.0,96,-99.99,,,0.00,Acu-Link.com,2013-02-21 23:33:00,
2013-02-21 17:48:00,51.8,51.3,29.68,East,90,3.7,-999.0,98,-99.99,,,0.01,Acu-Link.com,2013-02-21 23:48:00,
2013-02-21 18:04:00,50.0,49.5,29.68,WNW,292,2.7,-999.0,98,-99.99,,,0.05,Acu-Link.com,2013-02-22 00:04:00,
2013-02-21 18:19:00,49.1,48.6,29.68,SSE,157,4.7,-999.0,98,-99.99,,,0.07,Acu-Link.com,2013-02-22 00:19:00,
2013-02-21 18:34:00,48.9,48.4,29.68,North,0,1.7,-999.0,98,-99.99,,,0.15,Acu-Link.com,2013-02-22 00:34:00,
2013-02-21 18:49:00,48.4,47.9,29.70,NNW,337,2.2,-999.0,98,-99.99,,,0.15,Acu-Link.com,2013-02-22 00:49:00,
2013-02-21 19:04:00,48.2,47.7,29.65,North,0,2.7,-999.0,98,-99.99,,,0.17,Acu-Link.com,2013-02-22 01:04:00,
2013-02-21 19:19:00,48.4,47.9,29.69,East,90,1.7,-999.0,98,-99.99,,,0.17,Acu-Link.com,2013-02-22 01:19:00,
2013-02-21 19:34:00,48.4,47.9,29.68,North,0,0.0,-999.0,98,-99.99,,,0.17,Acu-Link.com,2013-02-22 01:34:00,
2013-02-21 19:49:00,48.2,47.7,29.70,North,0,0.0,-999.0,98,-99.99,,,0.17,Acu-Link.com,2013-02-22 01:49:00,
2013-02-21 20:04:00,48.0,47.5,29.71,North,0,1.1,-999.0,98,-99.99,,,0.18,Acu-Link.com,2013-02-22 02:04:00,
2013-02-21 20:20:00,47.8,47.3,29.72,North,0,0.0,-999.0,98,-99.99,,,0.19,Acu-Link.com,2013-02-22 02:20:00,
2013-02-21 20:35:00,47.8,47.3,29.75,North,0,2.2,-999.0,98,-99.99,,,0.21,Acu-Link.com,2013-02-22 02:35:00,
2013-02-21 20:50:00,47.7,47.2,29.76,ESE,112,3.7,-999.0,98,-99.99,,,0.31,Acu-Link.com,2013-02-22 02:50:00,
2013-02-21 21:05:00,47.5,47.0,29.75,North,0,2.7,-999.0,98,-99.99,,,0.35,Acu-Link.com,2013-02-22 03:05:00,
2013-02-21 21:20:00,47.5,47.0,29.79,North,0,2.7,-999.0,98,-99.99,,,0.41,Acu-Link.com,2013-02-22 03:20:00,
2013-02-21 21:35:00,47.3,46.8,29.76,North,0,4.2,-999.0,98,-99.99,,,0.48,Acu-Link.com,2013-02-22 03:35:00,
2013-02-21 21:51:00,47.1,46.6,29.78,North,0,3.2,-999.0,98,-99.99,,,0.61,Acu-Link.com,2013-02-22 03:51:00,
2013-02-21 22:06:00,47.3,46.8,29.74,North,0,2.7,-999.0,98,-99.99,,,0.68,Acu-Link.com,2013-02-22 04:06:00,
2013-02-21 22:21:00,47.1,46.6,29.78,North,0,1.7,-999.0,98,-99.99,,,0.75,Acu-Link.com,2013-02-22 04:21:00,
2013-02-21 22:36:00,47.1,46.6,29.75,ESE,112,4.7,-999.0,98,-99.99,,,0.82,Acu-Link.com,2013-02-22 04:36:00,
2013-02-21 22:51:00,47.1,46.6,29.75,North,0,2.7,-999.0,98,-99.99,,,0.90,Acu-Link.com,2013-02-22 04:51:00,
2013-02-21 23:06:00,46.9,46.4,29.75,NE,45,3.7,-999.0,98,-99.99,,,0.95,Acu-Link.com,2013-02-22 05:06:00,
2013-02-21 23:21:00,46.9,46.4,29.75,North,0,3.2,-999.0,98,-99.99,,,1.01,Acu-Link.com,2013-02-22 05:21:00,
2013-02-21 23:36:00,46.9,46.4,29.75,North,0,4.2,-999.0,98,-99.99,,,1.04,Acu-Link.com,2013-02-22 05:36:00,
2013-02-21 23:51:00,47.1,46.6,29.73,North,0,2.7,-999.0,98,-99.99,,,1.06,Acu-Link.com,2013-02-22 05:51:00,